To NAV CANADA Home Page Login to a new session Search on AWWS site Feedback and Comments Disclaimer Vers la page française équivalente Tips FAQ What's new on the site To the Forecasts and Observations / NOTAM section To "File a Flight Plan" website Publications and other links Update of the User's profile FIC Telephone Numbers My Weather Data Folder Route Weather Data Regional Weather Data Local Weather Data To the Forecasts and Observations / NOTAM section
Request Generated 04/30/2017 at 05:01:00 UTC . Weather information available at that time is displayed.

METAR/TAF

QUEBEC/JEAN LESAGE INTL/QC    

METAR CYQB 300400Z 34014G20KT 15SM BKN048 04/M06 A3018 RMK SC6
SLP222=
METAR CYQB 300300Z 35016G24KT 15SM BKN046 05/M05 A3016 RMK SC7
SLP218=
METAR CYQB 300200Z 32012G21KT 270V350 15SM OVC051 05/M05 A3016 RMK
SC8 SLP216=

TAF AMD CYQB 300307Z 3003/3024 33014G24KT P6SM BKN050
FM300600 30006KT P6SM SCT030
FM301500 08006KT P6SM BKN180
BECMG 3017/3019 14006KT
RMK NXT FCST BY 300600Z=
Your time UTC time
Weather data provided by Environment Canada and NAV CANADA